ESGG

Gothenburg-Landvetter Airport

Gothenburg, Sweden
TAF ESGG 252330Z 2600/2624 24010KT 9999 BKN008 PROB40 2600/2605 BKN004 BECMG 2607/2609 BKN012 BECMG 2609/2611 BKN020 TEMPO 2613/2618 SHRA BKN030CB PROB40 2618/2624 BKN009
Issued Valid From Valid To
Apr-25 @ 23:30 UTC
(4 hours ago)
Apr-26 @ 00:00 UTC
(4 hours ago)
Apr-27 @ 00:00 UTC
(in 20 hours)
Apr-26 @ 00:00 to Apr-26 @ 07:00
TAF ESGG 252330Z 2600/2624 24010KT 9999 BKN008
Wind Visibility Clouds
240° at 10 knots 10,000+ meters
  • Broken at 800' AGL
Probable  (Probability 40%) Apr-26 @ 00:00 to Apr-26 @ 05:00
PROB40 2600/2605 BKN004
Clouds
  • Broken at 400' AGL
Becoming Apr-26 @ 07:00 to Apr-26 @ 09:00
BECMG 2607/2609 BKN012
Wind Visibility Clouds
240° at 10 knots 10,000+ meters
  • Broken at 1,200' AGL
Becoming Apr-26 @ 09:00 to Apr-27 @ 00:00
BECMG 2609/2611 BKN020
Wind Visibility Clouds
240° at 10 knots 10,000+ meters
  • Broken at 2,000' AGL
Temporary Apr-26 @ 13:00 to Apr-26 @ 18:00
TEMPO 2613/2618 SHRA BKN030CB
Clouds Conditions
  • Broken at 3,000' AGL
  • Rain
Probable  (Probability 40%) Apr-26 @ 18:00 to Apr-27 @ 00:00
PROB40 2618/2624 BKN009
Clouds
  • Broken at 900' AGL
TAF ESGG 252330Z 2600/2624 24010KT 9999 BKN008 PROB40 2600/2605 BKN004 BECMG 2607/2609 BKN012 BECMG 2609/2611 BKN020 TEMPO 2613/2618 SHRA BKN030CB PROB40 2618/2624 BKN009
Issued Apr-25 @ 23:30 UTC
(4 hours ago)
Valid From Apr-26 @ 00:00 UTC
(4 hours ago)
Valid To Apr-27 @ 00:00 UTC
(in 20 hours)
Apr-26 @ 00:00 - Apr-26 @ 07:00
Wind Visibility
240° at 10 knots 10,000+ meters
Clouds
  • Broken at 800' AGL
Probability 40% Probable Apr-26 @ 00:00 - Apr-26 @ 05:00
Clouds
  • Broken at 400' AGL
Becoming Apr-26 @ 07:00 - Apr-26 @ 09:00
Wind Visibility
240° at 10 knots 10,000+ meters
Clouds
  • Broken at 1,200' AGL
Becoming Apr-26 @ 09:00 - Apr-27 @ 00:00
Wind Visibility
240° at 10 knots 10,000+ meters
Clouds
  • Broken at 2,000' AGL
Temporary Apr-26 @ 13:00 - Apr-26 @ 18:00
Clouds
  • Broken at 3,000' AGL
Conditions
  • Rain
Probability 40% Probable Apr-26 @ 18:00 - Apr-27 @ 00:00
Clouds
  • Broken at 900' AGL